createdAt,value
2018-04-17T00:00:44.727Z,14.65
2018-04-17T00:01:45.831Z,15.98
2018-04-17T00:02:46.919Z,21.83
2018-04-17T00:03:48.043Z,17.65
2018-04-17T00:04:49.118Z,17.17
2018-04-17T00:05:50.941Z,14.73
2018-04-17T00:06:52.025Z,16.62
2018-04-17T00:07:53.103Z,19.65
2018-04-17T00:08:54.166Z,17.20
2018-04-17T00:09:55.266Z,18.33
2018-04-17T00:10:56.342Z,16.30
2018-04-17T00:11:57.414Z,18.15
2018-04-17T00:12:58.499Z,18.35
2018-04-17T00:14:00.298Z,19.02
2018-04-17T00:15:01.363Z,16.15
2018-04-17T00:16:02.480Z,17.02
2018-04-17T00:17:03.628Z,19.05
2018-04-17T00:18:05.462Z,16.55
2018-04-17T00:19:06.565Z,16.90
2018-04-17T00:20:07.666Z,19.80
2018-04-17T00:21:08.770Z,18.12
2018-04-17T00:22:09.849Z,17.73
2018-04-17T00:23:10.933Z,20.80
2018-04-17T00:24:12.032Z,14.93
2018-04-17T00:25:13.143Z,20.05
2018-04-17T00:26:14.222Z,18.08
2018-04-17T00:27:15.354Z,18.23
2018-04-17T00:28:16.423Z,17.02
2018-04-17T00:29:18.222Z,15.20
2018-04-17T00:30:19.291Z,19.37
2018-04-17T00:31:21.151Z,17.45
2018-04-17T00:32:23.016Z,18.35
2018-04-17T00:33:24.083Z,17.27
2018-04-17T00:34:25.168Z,16.62
2018-04-17T00:35:26.255Z,18.80
2018-04-17T00:36:27.352Z,17.20
2018-04-17T00:37:28.485Z,18.80
2018-04-17T00:38:29.624Z,19.92
2018-04-17T00:39:30.739Z,19.67
2018-04-17T00:40:31.839Z,18.67
2018-04-17T00:41:32.966Z,20.15
2018-04-17T00:42:34.071Z,19.98
2018-04-17T00:43:35.148Z,22.27
2018-04-17T00:44:36.220Z,17.90
2018-04-17T00:45:37.339Z,22.13
2018-04-17T00:46:38.440Z,18.65
2018-04-17T00:47:39.486Z,16.70
2018-04-17T00:48:41.287Z,21.20
2018-04-17T00:49:42.375Z,15.57
2018-04-17T00:50:44.183Z,16.30
2018-04-17T00:51:45.250Z,15.05
2018-04-17T00:52:47.051Z,19.65
2018-04-17T00:53:53.015Z,20.20
2018-04-17T00:54:54.143Z,17.17
2018-04-17T00:55:55.214Z,16.35
2018-04-17T00:56:57.009Z,18.02
2018-04-17T00:57:58.815Z,19.65
2018-04-17T00:59:00.635Z,18.92
2018-04-17T01:00:01.709Z,17.75
2018-04-17T01:01:02.776Z,19.05
2018-04-17T01:02:03.887Z,14.98
2018-04-17T01:03:04.978Z,17.55
2018-04-17T01:04:06.065Z,13.80
2018-04-17T01:05:07.122Z,19.02
2018-04-17T01:06:08.195Z,18.05
2018-04-17T01:07:10.003Z,16.60
2018-04-17T01:08:11.071Z,17.95
2018-04-17T01:09:12.866Z,16.50
2018-04-17T01:10:13.931Z,18.58
2018-04-17T01:11:15.750Z,20.05
2018-04-17T01:12:16.836Z,16.67
2018-04-17T01:13:17.927Z,17.58
2018-04-17T01:14:19.026Z,17.25
2018-04-17T01:15:20.105Z,17.90
2018-04-17T01:16:21.182Z,15.48
2018-04-17T01:17:22.269Z,17.17
2018-04-17T01:18:23.346Z,16.30
2018-04-17T01:19:24.423Z,19.67
2018-04-17T01:20:25.513Z,14.60
2018-04-17T01:21:26.619Z,17.73
2018-04-17T01:22:28.443Z,17.55
2018-04-17T01:23:29.528Z,17.58
2018-04-17T01:24:30.606Z,18.92
2018-04-17T01:25:31.696Z,16.85
2018-04-17T01:26:32.759Z,16.20
2018-04-17T01:27:33.851Z,19.42
2018-04-17T01:28:34.981Z,17.98
2018-04-17T01:29:36.059Z,23.12
2018-04-17T01:30:37.155Z,16.17
2018-04-17T01:31:38.962Z,16.50
2018-04-17T01:32:40.062Z,18.35
2018-04-17T01:33:41.143Z,17.40
2018-04-17T01:34:42.971Z,19.25
2018-04-17T01:35:44.077Z,19.70
2018-04-17T01:36:45.183Z,19.60
2018-04-17T01:37:46.314Z,18.12
2018-04-17T01:38:47.395Z,20.80
2018-04-17T01:39:48.475Z,15.68
2018-04-17T01:40:49.558Z,21.60
2018-04-17T01:41:50.666Z,18.02
2018-04-17T01:42:51.726Z,18.73
2018-04-17T01:43:52.818Z,18.17
2018-04-17T01:44:54.631Z,18.60
2018-04-17T01:45:56.434Z,19.17
2018-04-17T01:46:57.516Z,15.57
2018-04-17T01:47:59.349Z,17.95
2018-04-17T01:49:00.429Z,20.08
2018-04-17T01:50:01.548Z,15.52
2018-04-17T01:51:02.656Z,18.20
2018-04-17T01:52:04.483Z,17.40
2018-04-17T01:53:05.582Z,13.55
2018-04-17T01:54:06.681Z,17.50
2018-04-17T01:55:08.503Z,17.42
2018-04-17T01:56:09.583Z,16.42
2018-04-17T01:57:11.375Z,20.52
2018-04-17T01:58:12.468Z,18.48
2018-04-17T01:59:13.542Z,16.87
2018-04-17T02:00:14.655Z,17.50
2018-04-17T02:01:16.474Z,17.98
2018-04-17T02:02:17.555Z,18.45
2018-04-17T02:03:20.380Z,17.90
2018-04-17T02:04:21.475Z,18.25
2018-04-17T02:05:22.538Z,17.42
2018-04-17T02:06:23.638Z,18.83
2018-04-17T02:07:24.699Z,17.20
2018-04-17T02:09:33.716Z,13.75
2018-04-17T02:10:35.545Z,18.35
2018-04-17T02:11:36.643Z,18.35
2018-04-17T02:12:37.738Z,14.10
2018-04-17T02:13:38.812Z,17.50
2018-04-17T02:14:39.892Z,16.05
2018-04-17T02:15:40.966Z,18.50
2018-04-17T02:16:42.035Z,21.27
2018-04-17T02:17:43.106Z,15.23
2018-04-17T02:18:44.232Z,17.60
2018-04-17T02:19:45.335Z,14.20
2018-04-17T02:20:46.416Z,18.62
2018-04-17T02:21:47.500Z,17.08
2018-04-17T02:22:48.562Z,18.50
2018-04-17T02:23:50.375Z,14.98
2018-04-17T02:24:51.463Z,14.45
2018-04-17T02:25:52.543Z,17.55
2018-04-17T02:26:53.616Z,19.60
2018-04-17T02:27:54.713Z,17.35
2018-04-17T02:28:55.779Z,17.58
2018-04-17T02:29:56.855Z,17.48
2018-04-17T02:30:57.932Z,18.25
2018-04-17T02:31:59.738Z,16.35
2018-04-17T02:33:00.819Z,17.62
2018-04-17T02:34:02.648Z,18.87
2018-04-17T02:35:03.717Z,17.35
2018-04-17T02:36:04.774Z,15.00
2018-04-17T02:37:06.667Z,17.50
2018-04-17T02:38:07.755Z,17.58
2018-04-17T02:39:08.819Z,16.85
2018-04-17T02:40:09.887Z,15.55
2018-04-17T02:41:10.950Z,19.05
2018-04-17T02:42:12.002Z,16.83
2018-04-17T02:43:13.068Z,18.17
2018-04-17T02:44:14.164Z,15.98
2018-04-17T02:45:15.237Z,18.42
2018-04-17T02:46:16.329Z,18.92
2018-04-17T02:47:17.411Z,21.75
2018-04-17T02:48:18.480Z,20.45
2018-04-17T02:49:19.567Z,19.20
2018-04-17T02:50:21.369Z,16.60
2018-04-17T02:51:22.478Z,17.73
2018-04-17T02:52:23.554Z,19.92
2018-04-17T02:53:24.637Z,16.90
2018-04-17T02:54:26.452Z,17.58
2018-04-17T02:55:28.251Z,18.23
2018-04-17T02:56:29.329Z,17.08
2018-04-17T02:57:30.413Z,19.58
2018-04-17T02:58:31.488Z,15.98
2018-04-17T02:59:32.584Z,18.12
2018-04-17T03:00:33.657Z,15.23
2018-04-17T03:01:34.714Z,20.67
2018-04-17T03:02:35.787Z,15.85
2018-04-17T03:03:36.858Z,18.02
2018-04-17T03:04:38.029Z,20.20
2018-04-17T03:05:39.094Z,17.02
2018-04-17T03:06:40.164Z,19.67
2018-04-17T03:07:41.279Z,17.20
2018-04-17T03:08:42.347Z,19.55
2018-04-17T03:09:43.429Z,17.85
2018-04-17T03:10:44.496Z,22.83
2018-04-17T03:11:45.607Z,18.40
2018-04-17T03:12:46.659Z,18.85
2018-04-17T03:13:47.735Z,19.48
2018-04-17T03:14:48.804Z,19.15
2018-04-17T03:15:49.870Z,23.05
2018-04-17T03:16:50.935Z,21.27
2018-04-17T03:17:52.017Z,19.08
2018-04-17T03:18:53.080Z,19.77
2018-04-17T03:19:54.163Z,20.65
2018-04-17T03:20:55.223Z,20.17
2018-04-17T03:21:56.292Z,23.65
2018-04-17T03:22:57.358Z,19.17
2018-04-17T03:23:59.171Z,23.60
2018-04-17T03:25:00.259Z,25.80
2018-04-17T03:26:01.324Z,21.30
2018-04-17T03:27:02.416Z,24.35
2018-04-17T03:28:04.228Z,22.10
2018-04-17T03:29:05.280Z,19.27
2018-04-17T03:30:06.361Z,20.98
2018-04-17T03:31:07.443Z,17.05
2018-04-17T03:32:08.556Z,19.55
2018-04-17T03:33:09.628Z,18.80
2018-04-17T03:34:10.759Z,17.20
2018-04-17T03:35:12.597Z,18.73
2018-04-17T03:36:14.428Z,18.67
2018-04-17T03:37:15.499Z,20.02
2018-04-17T03:38:16.590Z,18.33
2018-04-17T03:39:17.728Z,18.48
2018-04-17T03:40:18.839Z,20.10
2018-04-17T03:41:19.924Z,21.30
2018-04-17T03:42:21.736Z,15.10
2018-04-17T03:43:22.803Z,18.15
2018-04-17T03:44:24.602Z,19.10
2018-04-17T03:45:25.701Z,17.00
2018-04-17T03:46:27.498Z,20.37
2018-04-17T03:47:28.598Z,18.30
2018-04-17T03:48:29.783Z,16.87
2018-04-17T03:49:30.866Z,18.17
2018-04-17T03:50:31.948Z,17.05
2018-04-17T03:51:33.035Z,15.88
2018-04-17T03:52:34.086Z,17.12
2018-04-17T03:53:35.160Z,18.45
2018-04-17T03:54:36.222Z,17.30
2018-04-17T03:55:37.309Z,19.62
2018-04-17T03:56:38.375Z,19.58
2018-04-17T03:57:39.467Z,17.30
2018-04-17T03:58:40.535Z,18.02
2018-04-17T04:00:49.303Z,21.67
2018-04-17T04:01:50.373Z,20.70
2018-04-17T04:02:51.452Z,18.37
2018-04-17T04:03:52.523Z,16.20
2018-04-17T04:04:53.607Z,21.92
2018-04-17T04:05:54.702Z,21.23
2018-04-17T04:06:56.506Z,18.58
2018-04-17T04:07:57.595Z,18.10
2018-04-17T04:08:58.671Z,18.95
2018-04-17T04:09:59.731Z,20.05
2018-04-17T04:11:00.831Z,14.45
2018-04-17T04:12:01.932Z,20.52
2018-04-17T04:13:03.014Z,20.62
2018-04-17T04:14:04.116Z,18.48
2018-04-17T04:15:05.175Z,23.08
2018-04-17T04:16:18.422Z,16.65
2018-04-17T04:17:31.665Z,19.30
2018-04-17T04:18:44.942Z,21.17
2018-04-17T04:19:58.171Z,18.05
2018-04-17T04:21:11.483Z,18.05
2018-04-17T04:22:24.980Z,19.05
2018-04-17T04:23:38.327Z,22.37
2018-04-17T04:24:51.567Z,19.45
2018-04-17T04:26:04.831Z,19.95
2018-04-17T04:27:05.925Z,19.70
2018-04-17T04:28:07.007Z,19.85
2018-04-17T04:29:08.077Z,16.08
2018-04-17T04:30:09.181Z,22.15
2018-04-17T04:31:10.279Z,17.40
2018-04-17T04:32:11.363Z,20.48
2018-04-17T04:33:12.447Z,18.17
2018-04-17T04:34:13.519Z,25.73
2018-04-17T04:35:14.660Z,21.42
2018-04-17T04:36:16.479Z,18.85
2018-04-17T04:37:17.591Z,19.45
2018-04-17T04:38:18.712Z,24.45
2018-04-17T04:39:19.776Z,17.65
2018-04-17T04:40:20.872Z,19.62
2018-04-17T04:41:21.956Z,15.48
2018-04-17T04:42:23.025Z,22.92
2018-04-17T04:43:24.112Z,19.23
2018-04-17T04:44:25.220Z,21.35
2018-04-17T04:45:26.304Z,24.85
2018-04-17T04:46:28.139Z,18.20
2018-04-17T04:47:29.962Z,22.10
2018-04-17T04:48:31.038Z,17.23
2018-04-17T04:49:32.123Z,19.35
2018-04-17T04:50:33.227Z,18.87
2018-04-17T04:51:34.303Z,17.85
2018-04-17T04:52:35.359Z,19.00
2018-04-17T04:53:37.187Z,18.62
2018-04-17T04:54:38.274Z,20.20
2018-04-17T04:55:39.351Z,17.45
2018-04-17T04:56:40.458Z,19.58
2018-04-17T04:57:41.572Z,15.63
2018-04-17T04:58:42.616Z,20.65
2018-04-17T04:59:43.695Z,18.73
2018-04-17T05:00:44.778Z,18.12
2018-04-17T05:01:46.604Z,21.35
2018-04-17T05:02:48.418Z,21.45
2018-04-17T05:03:49.498Z,22.40
2018-04-17T05:04:50.629Z,29.08
2018-04-17T05:05:51.687Z,18.37
2018-04-17T05:06:52.824Z,17.00
2018-04-17T05:07:53.908Z,22.42
2018-04-17T05:08:54.982Z,18.33
2018-04-17T05:09:56.039Z,21.55
2018-04-17T05:10:57.115Z,19.33
2018-04-17T05:11:58.971Z,20.55
2018-04-17T05:13:00.063Z,18.00
2018-04-17T05:14:01.168Z,22.00
2018-04-17T05:15:02.305Z,19.77
2018-04-17T05:16:03.420Z,19.92
2018-04-17T05:17:04.552Z,20.45
2018-04-17T05:18:05.672Z,17.92
2018-04-17T05:19:06.759Z,21.83
2018-04-17T05:20:07.867Z,23.17
2018-04-17T05:21:08.959Z,20.20
2018-04-17T05:22:10.101Z,21.62
2018-04-17T05:23:11.295Z,19.67
2018-04-17T05:24:13.164Z,22.05
2018-04-17T05:25:14.255Z,19.33
2018-04-17T05:26:15.412Z,17.20
2018-04-17T05:27:16.565Z,19.98
2018-04-17T05:28:17.648Z,18.67
2018-04-17T05:29:18.767Z,19.80
2018-04-17T05:30:19.901Z,20.42
2018-04-17T05:31:21.024Z,21.80
2018-04-17T05:32:22.124Z,17.27
2018-04-17T05:33:24.006Z,21.50
2018-04-17T05:34:25.122Z,20.37
2018-04-17T05:35:26.259Z,20.30
2018-04-17T05:36:27.318Z,20.45
2018-04-17T05:37:28.390Z,21.17
2018-04-17T05:38:29.463Z,19.85
2018-04-17T05:39:30.616Z,22.98
2018-04-17T05:40:31.709Z,22.00
2018-04-17T05:41:32.784Z,20.88
2018-04-17T05:42:33.883Z,20.40
2018-04-17T05:43:35.683Z,20.52
2018-04-17T05:44:36.752Z,21.30
2018-04-17T05:45:37.831Z,19.35
2018-04-17T05:46:39.091Z,16.92
2018-04-17T05:47:40.182Z,23.85
2018-04-17T05:48:41.242Z,20.35
2018-04-17T05:49:42.322Z,19.15
2018-04-17T05:50:44.191Z,18.73
2018-04-17T05:51:45.272Z,18.25
2018-04-17T05:52:46.347Z,21.15
2018-04-17T05:53:48.152Z,22.70
2018-04-17T05:54:49.269Z,21.30
2018-04-17T05:55:50.463Z,19.55
2018-04-17T05:56:51.463Z,18.15
2018-04-17T05:57:52.540Z,18.90
2018-04-17T05:58:53.628Z,19.85
2018-04-17T05:59:54.690Z,18.50
2018-04-17T06:00:56.515Z,20.50
2018-04-17T06:01:57.570Z,21.17
2018-04-17T06:02:58.649Z,21.62
2018-04-17T06:03:59.743Z,21.58
2018-04-17T06:05:00.823Z,21.52
2018-04-17T06:06:01.926Z,22.42
2018-04-17T06:07:02.992Z,48.85
2018-04-17T06:08:04.099Z,27.85
2018-04-17T06:09:05.198Z,26.80
2018-04-17T06:10:06.262Z,19.45
2018-04-17T06:11:07.356Z,19.70
2018-04-17T06:12:08.482Z,24.95
2018-04-17T06:13:10.303Z,22.25
2018-04-17T06:14:11.364Z,22.27
2018-04-17T06:15:13.174Z,22.83
2018-04-17T06:16:14.250Z,20.02
2018-04-17T06:17:16.096Z,22.30
2018-04-17T06:18:17.945Z,26.08
2018-04-17T06:19:19.019Z,24.98
2018-04-17T06:20:20.132Z,22.27
2018-04-17T06:21:21.238Z,24.52
2018-04-17T06:22:22.346Z,23.42
2018-04-17T06:23:23.432Z,27.42
2018-04-17T06:24:24.528Z,27.73
2018-04-17T06:25:25.591Z,22.27
2018-04-17T06:26:26.663Z,21.70
2018-04-17T06:27:27.732Z,24.00
2018-04-17T06:28:28.821Z,23.15
2018-04-17T06:29:29.911Z,20.20
2018-04-17T06:30:30.995Z,24.20
2018-04-17T06:31:32.094Z,20.52
2018-04-17T06:32:33.198Z,27.10
2018-04-17T06:33:34.268Z,21.77
2018-04-17T06:34:35.342Z,24.45
2018-04-17T06:35:36.484Z,23.00
2018-04-17T06:36:37.551Z,27.10
2018-04-17T06:37:38.634Z,22.05
2018-04-17T06:38:39.715Z,21.98
2018-04-17T06:39:40.851Z,27.37
2018-04-17T06:40:41.947Z,20.95
2018-04-17T06:41:43.066Z,24.00
2018-04-17T06:42:44.095Z,22.15
2018-04-17T06:43:45.199Z,22.35
2018-04-17T06:44:46.279Z,18.42
2018-04-17T06:45:48.103Z,22.20
2018-04-17T06:46:49.173Z,29.45
2018-04-17T06:47:50.984Z,20.15
2018-04-17T06:48:52.068Z,19.55
2018-04-17T06:49:53.904Z,21.33
2018-04-17T06:50:54.973Z,24.30
2018-04-17T06:51:56.042Z,21.90
2018-04-17T06:52:57.129Z,23.05
2018-04-17T06:53:58.234Z,19.65
2018-04-17T06:54:59.290Z,25.50
2018-04-17T06:56:00.362Z,22.58
2018-04-17T06:57:01.445Z,20.02
2018-04-17T06:58:02.580Z,21.95
2018-04-17T06:59:03.665Z,21.73
2018-04-17T07:00:04.740Z,20.50
2018-04-17T07:01:05.843Z,21.12
2018-04-17T07:02:06.931Z,23.00
2018-04-17T07:03:08.028Z,18.00
2018-04-17T07:04:09.153Z,20.45
2018-04-17T07:05:10.275Z,16.60
2018-04-17T07:06:11.355Z,27.08
2018-04-17T07:07:12.455Z,25.00
2018-04-17T07:08:14.291Z,19.05
2018-04-17T07:09:15.412Z,24.00
2018-04-17T07:10:16.519Z,20.40
2018-04-17T07:11:17.595Z,21.35
2018-04-17T07:12:19.441Z,21.35
2018-04-17T07:13:20.526Z,23.25
2018-04-17T07:14:21.630Z,22.80
2018-04-17T07:15:22.706Z,20.10
2018-04-17T07:16:23.800Z,30.35
2018-04-17T07:17:24.892Z,19.50
2018-04-17T07:18:26.022Z,21.95
2018-04-17T07:19:27.137Z,20.17
2018-04-17T07:20:28.212Z,20.42
2018-04-17T07:21:30.047Z,21.65
2018-04-17T07:22:31.124Z,21.00
2018-04-17T07:23:32.226Z,22.67
2018-04-17T07:24:33.319Z,21.52
2018-04-17T07:25:34.421Z,18.27
2018-04-17T07:26:35.495Z,19.65
2018-04-17T07:27:36.647Z,20.05
2018-04-17T07:28:37.784Z,18.48
2018-04-17T07:29:38.907Z,15.63
2018-04-17T07:30:39.983Z,19.45
2018-04-17T07:31:41.060Z,17.30
2018-04-17T07:32:42.192Z,21.62
2018-04-17T07:33:43.251Z,17.40
2018-04-17T07:34:44.376Z,18.92
2018-04-17T07:35:45.479Z,17.87
2018-04-17T07:36:46.575Z,17.62
2018-04-17T07:37:47.662Z,22.90
2018-04-17T07:38:48.777Z,20.60
2018-04-17T07:39:49.871Z,17.10
2018-04-17T07:40:51.015Z,15.85
2018-04-17T07:41:52.108Z,17.87
2018-04-17T07:42:53.163Z,14.23
2018-04-17T07:43:55.015Z,16.00
2018-04-17T07:44:56.136Z,16.37
2018-04-17T07:45:57.243Z,19.25
2018-04-17T07:47:10.543Z,20.40
2018-04-17T07:48:24.595Z,19.80
2018-04-17T07:49:25.667Z,18.10
2018-04-17T07:50:27.522Z,14.80
2018-04-17T07:51:28.628Z,19.42
2018-04-17T07:52:29.696Z,18.62
2018-04-17T07:53:30.771Z,15.90
2018-04-17T07:54:31.843Z,20.58
2018-04-17T07:55:33.719Z,17.17
2018-04-17T07:56:34.831Z,15.27
2018-04-17T07:57:35.929Z,18.55
2018-04-17T07:58:37.015Z,15.55
2018-04-17T07:59:43.091Z,18.27
2018-04-17T08:00:50.710Z,16.55
2018-04-17T08:01:52.756Z,16.45
2018-04-17T08:02:53.880Z,17.65
2018-04-17T08:03:54.956Z,18.37
2018-04-17T08:04:56.040Z,21.37
2018-04-17T08:05:57.123Z,17.50
2018-04-17T08:06:58.191Z,16.10
2018-04-17T08:07:59.247Z,18.42
2018-04-17T08:09:00.315Z,19.05
2018-04-17T08:10:01.402Z,19.83
2018-04-17T08:11:02.544Z,21.95
2018-04-17T08:12:03.627Z,20.30
2018-04-17T08:13:04.711Z,19.00
2018-04-17T08:14:05.785Z,20.33
2018-04-17T08:15:06.859Z,17.77
2018-04-17T08:16:14.874Z,19.45
2018-04-17T08:17:15.940Z,16.35
2018-04-17T08:18:17.018Z,12.37
2018-04-17T08:19:18.143Z,16.87
2018-04-17T08:20:19.223Z,15.55
2018-04-17T08:21:21.197Z,16.37
2018-04-17T08:22:22.255Z,19.90
2018-04-17T08:23:23.363Z,15.80
2018-04-17T08:24:24.451Z,17.83
2018-04-17T08:25:25.537Z,16.33
2018-04-17T08:26:26.749Z,14.63
2018-04-17T08:27:27.825Z,19.37
2018-04-17T08:28:28.892Z,15.73
2018-04-17T08:29:29.965Z,18.95
2018-04-17T08:30:31.172Z,15.15
2018-04-17T08:31:32.272Z,16.83
2018-04-17T08:32:33.355Z,20.27
2018-04-17T08:33:34.427Z,13.77
2018-04-17T08:34:35.512Z,12.75
2018-04-17T08:35:36.596Z,15.93
2018-04-17T08:36:37.659Z,12.20
2018-04-17T08:37:39.504Z,16.92
2018-04-17T08:38:41.430Z,16.12
2018-04-17T08:39:42.479Z,15.63
2018-04-17T08:40:43.528Z,11.82
2018-04-17T08:41:45.386Z,17.45
2018-04-17T08:42:46.511Z,13.35
2018-04-17T08:43:47.555Z,17.48
2018-04-17T08:44:48.644Z,12.73
2018-04-17T08:45:49.734Z,16.25
2018-04-17T08:46:50.812Z,15.57
2018-04-17T08:47:51.884Z,36.78
2018-04-17T08:48:53.015Z,14.63
2018-04-17T08:49:54.077Z,15.52
2018-04-17T08:50:55.126Z,13.45
2018-04-17T08:51:56.198Z,18.00
2018-04-17T08:52:57.263Z,20.73
2018-04-17T08:53:58.318Z,17.40
2018-04-17T08:54:59.375Z,17.55
2018-04-17T08:56:00.465Z,13.13
2018-04-17T08:57:01.555Z,15.55
2018-04-17T08:58:02.657Z,13.90
2018-04-17T08:59:03.723Z,16.70
2018-04-17T09:00:05.526Z,16.00
2018-04-17T09:01:06.583Z,17.27
2018-04-17T09:02:07.672Z,13.82
2018-04-17T09:03:08.768Z,13.38
2018-04-17T09:04:09.899Z,12.57
2018-04-17T09:05:11.744Z,18.92
2018-04-17T09:06:12.769Z,16.20
2018-04-17T09:07:13.839Z,12.60
2018-04-17T09:08:14.952Z,16.35
2018-04-17T09:09:16.047Z,15.70
2018-04-17T09:10:17.132Z,14.10
2018-04-17T09:11:18.216Z,15.75
2018-04-17T09:12:19.301Z,14.55
2018-04-17T09:13:20.370Z,17.17
2018-04-17T09:14:21.418Z,18.10
2018-04-17T09:15:22.475Z,17.85
2018-04-17T09:16:23.544Z,16.12
2018-04-17T09:17:24.614Z,17.23
2018-04-17T09:18:25.703Z,17.35
2018-04-17T09:19:26.772Z,19.10
2018-04-17T09:20:27.844Z,19.10
2018-04-17T09:21:28.923Z,17.62
2018-04-17T09:22:30.792Z,17.67
2018-04-17T09:23:31.871Z,17.37
2018-04-17T09:24:32.943Z,16.85
2018-04-17T09:25:34.007Z,15.05
2018-04-17T09:26:35.888Z,16.37
2018-04-17T09:27:36.997Z,16.48
2018-04-17T09:28:38.058Z,11.77
2018-04-17T09:29:39.129Z,16.62
2018-04-17T09:30:40.186Z,18.80
2018-04-17T09:31:42.048Z,15.30
2018-04-17T09:32:43.863Z,16.85
2018-04-17T09:33:44.984Z,11.68
2018-04-17T09:34:46.064Z,14.02
2018-04-17T09:35:47.878Z,14.85
2018-04-17T09:36:48.956Z,13.75
2018-04-17T09:37:50.043Z,20.75
2018-04-17T09:38:51.116Z,13.93
2018-04-17T09:39:52.199Z,15.73
2018-04-17T09:40:53.284Z,13.00
2018-04-17T09:41:54.387Z,17.73
2018-04-17T09:42:55.459Z,16.02
2018-04-17T09:43:56.534Z,16.77
2018-04-17T09:44:57.601Z,14.30
2018-04-17T09:45:58.711Z,15.60
2018-04-17T09:46:59.768Z,17.55
2018-04-17T09:48:01.585Z,17.55
2018-04-17T09:49:02.661Z,15.13
2018-04-17T09:50:03.740Z,17.45
2018-04-17T09:51:04.818Z,16.35
2018-04-17T09:52:05.888Z,13.57
2018-04-17T09:53:06.959Z,16.65
2018-04-17T09:54:08.030Z,18.92
2018-04-17T09:55:09.151Z,17.05
2018-04-17T09:56:10.246Z,17.92
2018-04-17T09:57:11.297Z,17.73
2018-04-17T09:58:13.158Z,19.80
2018-04-17T09:59:14.981Z,18.48
2018-04-17T10:00:16.057Z,17.40
2018-04-17T10:01:17.951Z,14.25
2018-04-17T10:02:19.023Z,15.82
2018-04-17T10:03:20.091Z,18.42
2018-04-17T10:04:21.188Z,18.90
2018-04-17T10:05:22.283Z,15.75
2018-04-17T10:06:23.338Z,16.62
2018-04-17T10:07:25.169Z,14.20
2018-04-17T10:08:26.244Z,12.25
2018-04-17T10:09:27.339Z,18.30
2018-04-17T10:10:28.410Z,14.35
2018-04-17T10:11:29.483Z,13.35
2018-04-17T10:12:30.543Z,13.95
2018-04-17T10:13:32.378Z,16.48
2018-04-17T10:14:33.447Z,12.50
2018-04-17T10:15:34.541Z,19.70
2018-04-17T10:16:35.624Z,14.13
2018-04-17T10:17:36.703Z,12.37
2018-04-17T10:18:37.807Z,15.27
2018-04-17T10:19:38.935Z,15.40
2018-04-17T10:20:40.013Z,17.00
2018-04-17T10:21:41.083Z,18.33
2018-04-17T10:22:42.162Z,14.77
2018-04-17T10:23:43.234Z,17.05
2018-04-17T10:24:45.092Z,18.40
2018-04-17T10:25:46.163Z,16.67
2018-04-17T10:26:47.262Z,13.23
2018-04-17T10:27:48.346Z,9.52
2018-04-17T10:28:49.423Z,14.35
2018-04-17T10:29:50.543Z,13.38
2018-04-17T10:30:51.570Z,15.00
2018-04-17T10:31:53.390Z,12.85
2018-04-17T10:32:54.526Z,12.30
2018-04-17T10:33:55.627Z,13.35
2018-04-17T10:34:56.686Z,16.23
2018-04-17T10:35:57.761Z,16.98
2018-04-17T10:36:58.825Z,14.35
2018-04-17T10:37:59.932Z,12.77
2018-04-17T10:39:01.760Z,16.48
2018-04-17T10:40:02.858Z,13.85
2018-04-17T10:41:03.924Z,11.57
2018-04-17T10:42:05.011Z,13.23
2018-04-17T10:43:06.200Z,12.07
2018-04-17T10:44:07.312Z,13.62
2018-04-17T10:45:09.147Z,13.82
2018-04-17T10:46:10.227Z,13.30
2018-04-17T10:47:11.316Z,11.70
2018-04-17T10:48:12.438Z,14.43
2018-04-17T10:49:13.511Z,12.15
2018-04-17T10:50:15.317Z,12.27
2018-04-17T10:51:16.395Z,12.43
2018-04-17T10:52:17.464Z,12.93
2018-04-17T10:53:18.571Z,13.82
2018-04-17T10:54:19.651Z,11.93
2018-04-17T10:55:21.487Z,14.93
2018-04-17T10:56:22.547Z,14.70
2018-04-17T10:57:23.664Z,12.90
2018-04-17T10:58:24.771Z,14.77
2018-04-17T10:59:25.835Z,12.50
2018-04-17T11:00:26.895Z,11.82
2018-04-17T11:01:28.711Z,15.02
2018-04-17T11:02:29.773Z,15.18
2018-04-17T11:03:31.608Z,12.32
2018-04-17T11:04:32.684Z,10.10
2018-04-17T11:05:33.750Z,13.68
2018-04-17T11:06:34.810Z,11.45
2018-04-17T11:07:36.655Z,16.02
2018-04-17T11:08:37.824Z,15.38
2018-04-17T11:09:38.879Z,13.18
2018-04-17T11:10:39.953Z,13.23
2018-04-17T11:11:41.012Z,15.70
2018-04-17T11:12:42.064Z,12.60
2018-04-17T11:13:43.167Z,15.68
2018-04-17T11:14:45.013Z,15.82
2018-04-17T11:15:46.082Z,13.35
2018-04-17T11:16:47.169Z,16.45
2018-04-17T11:17:48.231Z,14.85
2018-04-17T11:18:49.340Z,13.05
2018-04-17T11:19:51.143Z,13.82
2018-04-17T11:20:52.249Z,13.13
2018-04-17T11:21:54.024Z,11.80
2018-04-17T11:22:55.136Z,11.55
2018-04-17T11:23:56.198Z,15.30
2018-04-17T11:24:57.269Z,9.63
2018-04-17T11:25:58.325Z,12.00
2018-04-17T11:26:59.387Z,11.60
2018-04-17T11:28:00.481Z,13.07
2018-04-17T11:29:01.596Z,11.38
2018-04-17T11:30:02.684Z,13.55
2018-04-17T11:31:03.759Z,10.75
2018-04-17T11:32:04.846Z,10.55
2018-04-17T11:33:05.904Z,12.35
2018-04-17T11:34:07.002Z,10.25
2018-04-17T11:35:08.075Z,15.52
2018-04-17T11:36:09.139Z,12.70
2018-04-17T11:37:10.955Z,17.33
2018-04-17T11:38:12.027Z,13.25
2018-04-17T11:40:20.874Z,11.23
2018-04-17T11:41:21.940Z,15.25
2018-04-17T11:42:23.018Z,15.00
2018-04-17T11:43:24.115Z,11.70
2018-04-17T11:44:25.195Z,13.73
2018-04-17T11:45:26.319Z,12.65
2018-04-17T11:46:27.398Z,15.07
2018-04-17T11:47:28.515Z,13.98
2018-04-17T11:48:29.582Z,13.52
2018-04-17T11:49:31.404Z,12.35
2018-04-17T11:50:32.461Z,11.98
2018-04-17T11:51:34.282Z,16.75
2018-04-17T11:52:35.358Z,14.23
2018-04-17T11:53:36.454Z,12.80
2018-04-17T11:54:37.538Z,13.13
2018-04-17T11:55:38.600Z,15.45
2018-04-17T11:56:39.678Z,10.13
2018-04-17T11:57:41.487Z,13.20
2018-04-17T11:58:42.551Z,10.77
2018-04-17T11:59:43.624Z,15.38
2018-04-17T12:00:44.679Z,8.63
2018-04-17T12:01:45.822Z,12.57
2018-04-17T12:02:46.893Z,11.32
2018-04-17T12:03:48.047Z,11.65
2018-04-17T12:04:49.124Z,12.35
2018-04-17T12:05:50.255Z,9.35
2018-04-17T12:06:51.326Z,13.73
2018-04-17T12:07:53.140Z,10.73
2018-04-17T12:08:54.222Z,10.52
2018-04-17T12:09:55.297Z,13.32
2018-04-17T12:10:56.411Z,14.63
2018-04-17T12:11:57.475Z,10.40
2018-04-17T12:12:58.595Z,11.90
2018-04-17T12:13:59.685Z,11.05
2018-04-17T12:15:00.742Z,12.37
2018-04-17T12:16:01.826Z,9.52
2018-04-17T12:17:02.943Z,13.48
2018-04-17T12:18:04.023Z,13.30
2018-04-17T12:19:05.138Z,13.32
2018-04-17T12:20:06.239Z,9.82
2018-04-17T12:21:07.319Z,13.15
2018-04-17T12:22:08.396Z,9.00
2018-04-17T12:23:09.507Z,11.45
2018-04-17T12:24:10.597Z,12.43
2018-04-17T12:25:11.655Z,11.52
2018-04-17T12:26:12.704Z,14.10
2018-04-17T12:27:13.789Z,11.68
2018-04-17T12:28:14.878Z,11.77
2018-04-17T12:29:15.955Z,9.48
2018-04-17T12:30:17.022Z,12.55
2018-04-17T12:31:18.094Z,9.77
2018-04-17T12:32:19.906Z,12.02
2018-04-17T12:33:21.063Z,12.63
2018-04-17T12:34:22.135Z,11.23
2018-04-17T12:35:23.951Z,15.15
2018-04-17T12:36:25.007Z,14.48
2018-04-17T12:37:26.806Z,10.75
2018-04-17T12:38:27.899Z,10.93
2018-04-17T12:39:29.708Z,14.57
2018-04-17T12:40:30.872Z,14.07
2018-04-17T12:41:31.967Z,13.73
2018-04-17T12:42:33.046Z,12.68
2018-04-17T12:43:34.876Z,12.07
2018-04-17T12:44:36.020Z,13.25
2018-04-17T12:45:37.839Z,13.30
2018-04-17T12:46:38.929Z,12.88
2018-04-17T12:47:40.004Z,10.60
2018-04-17T12:48:41.087Z,14.82
2018-04-17T12:49:42.201Z,10.55
2018-04-17T12:50:43.214Z,13.77
2018-04-17T12:51:44.275Z,12.32
2018-04-17T12:52:45.388Z,16.35
2018-04-17T12:53:46.499Z,20.02
2018-04-17T12:54:47.577Z,17.60
2018-04-17T12:55:48.671Z,15.93
2018-04-17T12:56:49.745Z,14.25
2018-04-17T12:57:50.836Z,17.60
2018-04-17T12:58:51.914Z,13.65
2018-04-17T12:59:52.992Z,16.40
2018-04-17T13:00:54.069Z,14.20
2018-04-17T13:01:55.168Z,16.25
2018-04-17T13:02:56.263Z,12.68
2018-04-17T13:03:57.362Z,13.18
2018-04-17T13:04:58.445Z,12.88
2018-04-17T13:05:59.511Z,14.40
2018-04-17T13:07:00.587Z,13.05
2018-04-17T13:08:01.665Z,10.45
2018-04-17T13:09:02.746Z,14.30
2018-04-17T13:10:03.835Z,13.90
2018-04-17T13:11:04.930Z,12.43
2018-04-17T13:12:06.020Z,8.43
2018-04-17T13:13:07.117Z,12.70
2018-04-17T13:14:08.193Z,13.55
2018-04-17T13:15:09.292Z,13.35